sensor_id;sensor_type;location;lat;lon;timestamp;pressure;altitude;pressure_sealevel;temperature
15709;BMP180;7954;51.914;8.420;2023-07-29T00:01:14;99527.53;;;27.30
15709;BMP180;7954;51.914;8.420;2023-07-29T00:03:42;99529.47;;;27.23
15709;BMP180;7954;51.914;8.420;2023-07-29T00:06:10;99520.38;;;27.18
15709;BMP180;7954;51.914;8.420;2023-07-29T00:08:40;99525.25;;;27.15
15709;BMP180;7954;51.914;8.420;2023-07-29T00:11:08;99508.56;;;27.12
15709;BMP180;7954;51.914;8.420;2023-07-29T00:13:36;99503.50;;;27.13
15709;BMP180;7954;51.914;8.420;2023-07-29T00:16:06;99504.28;;;27.12
15709;BMP180;7954;51.914;8.420;2023-07-29T00:18:35;99511.00;;;27.10
15709;BMP180;7954;51.914;8.420;2023-07-29T00:21:03;99511.81;;;27.09
15709;BMP180;7954;51.914;8.420;2023-07-29T00:23:32;99504.03;;;27.09
15709;BMP180;7954;51.914;8.420;2023-07-29T00:26:00;99501.56;;;27.11
15709;BMP180;7954;51.914;8.420;2023-07-29T00:28:28;99500.16;;;27.14
15709;BMP180;7954;51.914;8.420;2023-07-29T00:30:57;99497.81;;;27.17
15709;BMP180;7954;51.914;8.420;2023-07-29T00:33:27;99503.09;;;27.19
15709;BMP180;7954;51.914;8.420;2023-07-29T00:35:55;99497.03;;;27.18
15709;BMP180;7954;51.914;8.420;2023-07-29T00:38:23;99504.16;;;27.21
15709;BMP180;7954;51.914;8.420;2023-07-29T00:40:50;99505.72;;;27.19
15709;BMP180;7954;51.914;8.420;2023-07-29T00:43:18;99503.88;;;27.18
15709;BMP180;7954;51.914;8.420;2023-07-29T00:45:47;99509.47;;;27.22
15709;BMP180;7954;51.914;8.420;2023-07-29T00:48:15;99510.38;;;27.23
15709;BMP180;7954;51.914;8.420;2023-07-29T00:50:45;99511.19;;;27.22
15709;BMP180;7954;51.914;8.420;2023-07-29T00:53:14;99502.22;;;27.18
15709;BMP180;7954;51.914;8.420;2023-07-29T00:55:43;99505.84;;;27.20
15709;BMP180;7954;51.914;8.420;2023-07-29T00:58:11;99502.22;;;27.18
15709;BMP180;7954;51.914;8.420;2023-07-29T01:00:40;99494.16;;;27.15
15709;BMP180;7954;51.914;8.420;2023-07-29T01:03:08;99479.53;;;27.16
15709;BMP180;7954;51.914;8.420;2023-07-29T01:05:49;99477.81;;;27.16
15709;BMP180;7954;51.914;8.420;2023-07-29T01:08:25;99485.25;;;27.22
15709;BMP180;7954;51.914;8.420;2023-07-29T01:11:03;99491.31;;;27.22
15709;BMP180;7954;51.914;8.420;2023-07-29T01:13:43;99486.38;;;27.25
15709;BMP180;7954;51.914;8.420;2023-07-29T01:16:17;99482.25;;;27.17
15709;BMP180;7954;51.914;8.420;2023-07-29T01:18:47;99485.34;;;27.13
15709;BMP180;7954;51.914;8.420;2023-07-29T01:21:16;99488.19;;;27.06
15709;BMP180;7954;51.914;8.420;2023-07-29T01:23:46;99484.69;;;27.06
15709;BMP180;7954;51.914;8.420;2023-07-29T01:26:14;99487.81;;;27.02
15709;BMP180;7954;51.914;8.420;2023-07-29T01:28:43;99485.84;;;26.99
15709;BMP180;7954;51.914;8.420;2023-07-29T01:31:15;99492.81;;;27.00
15709;BMP180;7954;51.914;8.420;2023-07-29T01:33:50;99481.56;;;27.00
15709;BMP180;7954;51.914;8.420;2023-07-29T01:36:27;99479.44;;;26.96
15709;BMP180;7954;51.914;8.420;2023-07-29T01:38:57;99474.91;;;26.93
15709;BMP180;7954;51.914;8.420;2023-07-29T01:41:26;99473.09;;;26.92
15709;BMP180;7954;51.914;8.420;2023-07-29T01:43:56;99473.47;;;26.87
15709;BMP180;7954;51.914;8.420;2023-07-29T01:46:25;99475.00;;;26.85
15709;BMP180;7954;51.914;8.420;2023-07-29T01:48:53;99478.00;;;26.79
15709;BMP180;7954;51.914;8.420;2023-07-29T01:51:21;99468.09;;;26.75
15709;BMP180;7954;51.914;8.420;2023-07-29T01:53:49;99473.94;;;26.73
15709;BMP180;7954;51.914;8.420;2023-07-29T01:56:19;99461.78;;;26.72
15709;BMP180;7954;51.914;8.420;2023-07-29T01:58:47;99463.44;;;26.71
15709;BMP180;7954;51.914;8.420;2023-07-29T02:01:15;99460.31;;;26.65
15709;BMP180;7954;51.914;8.420;2023-07-29T02:03:43;99454.84;;;26.53
15709;BMP180;7954;51.914;8.420;2023-07-29T02:06:11;99457.16;;;26.50
15709;BMP180;7954;51.914;8.420;2023-07-29T02:08:39;99456.75;;;26.45
15709;BMP180;7954;51.914;8.420;2023-07-29T02:11:08;99472.16;;;26.44
15709;BMP180;7954;51.914;8.420;2023-07-29T02:13:37;99476.28;;;26.42
15709;BMP180;7954;51.914;8.420;2023-07-29T02:16:05;99462.94;;;26.37
15709;BMP180;7954;51.914;8.420;2023-07-29T02:18:33;99459.13;;;26.34
15709;BMP180;7954;51.914;8.420;2023-07-29T02:21:01;99453.66;;;26.31
15709;BMP180;7954;51.914;8.420;2023-07-29T02:23:29;99467.13;;;26.27
15709;BMP180;7954;51.914;8.420;2023-07-29T02:25:57;99461.94;;;26.27
15709;BMP180;7954;51.914;8.420;2023-07-29T02:28:25;99461.94;;;26.27
15709;BMP180;7954;51.914;8.420;2023-07-29T02:31:14;99449.06;;;26.37
15709;BMP180;7954;51.914;8.420;2023-07-29T02:33:43;99445.19;;;26.42
15709;BMP180;7954;51.914;8.420;2023-07-29T02:36:12;99443.16;;;26.48
15709;BMP180;7954;51.914;8.420;2023-07-29T02:38:41;99448.47;;;26.49
15709;BMP180;7954;51.914;8.420;2023-07-29T02:41:10;99443.72;;;26.54
15709;BMP180;7954;51.914;8.420;2023-07-29T02:43:39;99445.78;;;26.58
15709;BMP180;7954;51.914;8.420;2023-07-29T02:46:08;99446.84;;;26.60
15709;BMP180;7954;51.914;8.420;2023-07-29T02:48:37;99448.16;;;26.64
15709;BMP180;7954;51.914;8.420;2023-07-29T02:51:05;99451.75;;;26.66
15709;BMP180;7954;51.914;8.420;2023-07-29T02:53:33;99454.34;;;26.66
15709;BMP180;7954;51.914;8.420;2023-07-29T02:56:03;99449.31;;;26.68
15709;BMP180;7954;51.914;8.420;2023-07-29T02:58:33;99452.69;;;26.67
15709;BMP180;7954;51.914;8.420;2023-07-29T03:01:02;99445.69;;;26.66
15709;BMP180;7954;51.914;8.420;2023-07-29T03:03:30;99432.84;;;26.67
15709;BMP180;7954;51.914;8.420;2023-07-29T03:06:02;99424.56;;;26.71
15709;BMP180;7954;51.914;8.420;2023-07-29T03:08:30;99418.84;;;26.65
15709;BMP180;7954;51.914;8.420;2023-07-29T03:10:59;99428.97;;;26.62
15709;BMP180;7954;51.914;8.420;2023-07-29T03:13:27;99420.94;;;26.60
15709;BMP180;7954;51.914;8.420;2023-07-29T03:18:31;99427.75;;;26.49
15709;BMP180;7954;51.914;8.420;2023-07-29T03:21:02;99422.94;;;26.44
15709;BMP180;7954;51.914;8.420;2023-07-29T03:23:32;99423.72;;;26.43
15709;BMP180;7954;51.914;8.420;2023-07-29T03:26:01;99428.00;;;26.42
15709;BMP180;7954;51.914;8.420;2023-07-29T03:28:37;99428.91;;;26.43
15709;BMP180;7954;51.914;8.420;2023-07-29T03:31:06;99427.19;;;26.43
15709;BMP180;7954;51.914;8.420;2023-07-29T03:33:34;99428.38;;;26.47
15709;BMP180;7954;51.914;8.420;2023-07-29T03:36:04;99428.81;;;26.51
15709;BMP180;7954;51.914;8.420;2023-07-29T03:38:32;99431.25;;;26.50
15709;BMP180;7954;51.914;8.420;2023-07-29T03:41:02;99421.53;;;26.47
15709;BMP180;7954;51.914;8.420;2023-07-29T03:43:30;99420.91;;;26.50
15709;BMP180;7954;51.914;8.420;2023-07-29T03:45:57;99419.34;;;26.52
15709;BMP180;7954;51.914;8.420;2023-07-29T03:48:26;99414.16;;;26.52
15709;BMP180;7954;51.914;8.420;2023-07-29T03:50:54;99410.81;;;26.53
15709;BMP180;7954;51.914;8.420;2023-07-29T03:53:23;99412.22;;;26.49
15709;BMP180;7954;51.914;8.420;2023-07-29T03:55:52;99413.13;;;26.50
15709;BMP180;7954;51.914;8.420;2023-07-29T03:58:20;99416.75;;;26.52
15709;BMP180;7954;51.914;8.420;2023-07-29T04:00:48;99404.72;;;26.52
15709;BMP180;7954;51.914;8.420;2023-07-29T04:03:15;99403.16;;;26.54
15709;BMP180;7954;51.914;8.420;2023-07-29T04:05:43;99408.34;;;26.54
15709;BMP180;7954;51.914;8.420;2023-07-29T04:08:11;99412.22;;;26.59
15709;BMP180;7954;51.914;8.420;2023-07-29T04:10:41;99402.94;;;26.61
15709;BMP180;7954;51.914;8.420;2023-07-29T04:13:09;99400.88;;;26.67
15709;BMP180;7954;51.914;8.420;2023-07-29T04:15:37;99403.59;;;26.68
15709;BMP180;7954;51.914;8.420;2023-07-29T04:18:05;99405.66;;;26.72
15709;BMP180;7954;51.914;8.420;2023-07-29T04:20:33;99404.13;;;26.74
15709;BMP180;7954;51.914;8.420;2023-07-29T04:23:01;99396.34;;;26.74
15709;BMP180;7954;51.914;8.420;2023-07-29T04:25:29;99402.31;;;26.73
15709;BMP180;7954;51.914;8.420;2023-07-29T04:27:59;99408.13;;;26.71
15709;BMP180;7954;51.914;8.420;2023-07-29T04:30:29;99412.38;;;26.70
15709;BMP180;7954;51.914;8.420;2023-07-29T04:32:57;99401.00;;;26.68
15709;BMP180;7954;51.914;8.420;2023-07-29T04:35:25;99402.31;;;26.73
15709;BMP180;7954;51.914;8.420;2023-07-29T04:37:53;99411.09;;;26.75
15709;BMP180;7954;51.914;8.420;2023-07-29T04:40:21;99410.47;;;26.78
15709;BMP180;7954;51.914;8.420;2023-07-29T04:42:51;99408.66;;;26.77
15709;BMP180;7954;51.914;8.420;2023-07-29T04:45:20;99403.75;;;26.80
15709;BMP180;7954;51.914;8.420;2023-07-29T04:47:48;99404.00;;;26.83
15709;BMP180;7954;51.914;8.420;2023-07-29T04:50:16;99405.16;;;26.86
15709;BMP180;7954;51.914;8.420;2023-07-29T04:52:45;99397.94;;;26.92
15709;BMP180;7954;51.914;8.420;2023-07-29T04:55:13;99404.44;;;26.97
15709;BMP180;7954;51.914;8.420;2023-07-29T04:57:41;99396.13;;;27.01
15709;BMP180;7954;51.914;8.420;2023-07-29T05:00:11;99394.97;;;26.98
15709;BMP180;7954;51.914;8.420;2023-07-29T05:02:40;99385.78;;;27.01
15709;BMP180;7954;51.914;8.420;2023-07-29T05:05:09;99386.06;;;27.04
15709;BMP180;7954;51.914;8.420;2023-07-29T05:07:37;99389.66;;;27.06
15709;BMP180;7954;51.914;8.420;2023-07-29T05:10:06;99392.00;;;27.03
15709;BMP180;7954;51.914;8.420;2023-07-29T05:12:35;99391.25;;;27.04
15709;BMP180;7954;51.914;8.420;2023-07-29T05:15:04;99385.78;;;27.11
15709;BMP180;7954;51.914;8.420;2023-07-29T05:17:32;99379.56;;;27.19
15709;BMP180;7954;51.914;8.420;2023-07-29T05:20:01;99380.88;;;27.24
15709;BMP180;7954;51.914;8.420;2023-07-29T05:22:29;99381.34;;;27.30
15709;BMP180;7954;51.914;8.420;2023-07-29T05:24:57;99377.22;;;27.32
15709;BMP180;7954;51.914;8.420;2023-07-29T05:27:26;99384.75;;;27.29
15709;BMP180;7954;51.914;8.420;2023-07-29T05:29:55;99378.09;;;27.32
15709;BMP180;7954;51.914;8.420;2023-07-29T05:32:22;99385.78;;;27.31
15709;BMP180;7954;51.914;8.420;2023-07-29T05:34:50;99383.16;;;27.31
15709;BMP180;7954;51.914;8.420;2023-07-29T05:37:20;99389.53;;;27.34
15709;BMP180;7954;51.914;8.420;2023-07-29T05:39:48;99383.69;;;27.37
15709;BMP180;7954;51.914;8.420;2023-07-29T05:42:16;99379.25;;;27.46
15709;BMP180;7954;51.914;8.420;2023-07-29T05:44:46;99372.25;;;27.55
15709;BMP180;7954;51.914;8.420;2023-07-29T05:47:16;99358.66;;;27.57
15709;BMP180;7954;51.914;8.420;2023-07-29T05:49:43;99355.41;;;27.60
15709;BMP180;7954;51.914;8.420;2023-07-29T05:52:11;99374.06;;;27.56
15709;BMP180;7954;51.914;8.420;2023-07-29T05:54:41;99380.84;;;27.64
15709;BMP180;7954;51.914;8.420;2023-07-29T05:57:10;99378.09;;;27.52
15709;BMP180;7954;51.914;8.420;2023-07-29T05:59:38;99386.69;;;27.41
15709;BMP180;7954;51.914;8.420;2023-07-29T06:02:06;99383.94;;;27.40
15709;BMP180;7954;51.914;8.420;2023-07-29T06:04:34;99391.22;;;27.34
15709;BMP180;7954;51.914;8.420;2023-07-29T06:07:02;99388.00;;;27.36
15709;BMP180;7954;51.914;8.420;2023-07-29T06:09:31;99402.63;;;27.16
15709;BMP180;7954;51.914;8.420;2023-07-29T06:12:00;99404.03;;;27.03
15709;BMP180;7954;51.914;8.420;2023-07-29T06:14:28;99403.69;;;27.08
15709;BMP180;7954;51.914;8.420;2023-07-29T06:16:56;99406.53;;;27.21
15709;BMP180;7954;51.914;8.420;2023-07-29T06:19:24;99408.59;;;27.15
15709;BMP180;7954;51.914;8.420;2023-07-29T06:21:54;99410.28;;;27.25
15709;BMP180;7954;51.914;8.420;2023-07-29T06:24:23;99416.13;;;27.22
15709;BMP180;7954;51.914;8.420;2023-07-29T06:26:51;99400.31;;;27.19
15709;BMP180;7954;51.914;8.420;2023-07-29T06:29:21;99381.88;;;27.36
15709;BMP180;7954;51.914;8.420;2023-07-29T06:31:49;99375.25;;;27.69
15709;BMP180;7954;51.914;8.420;2023-07-29T06:34:17;99377.81;;;27.79
15709;BMP180;7954;51.914;8.420;2023-07-29T06:36:46;99374.13;;;27.87
15709;BMP180;7954;51.914;8.420;2023-07-29T06:39:14;99367.19;;;28.07
15709;BMP180;7954;51.914;8.420;2023-07-29T06:41:41;99372.34;;;28.27
15709;BMP180;7954;51.914;8.420;2023-07-29T06:44:09;99388.91;;;28.39
15709;BMP180;7954;51.914;8.420;2023-07-29T06:46:39;99390.16;;;28.13
15709;BMP180;7954;51.914;8.420;2023-07-29T06:49:07;99398.88;;;28.13
15709;BMP180;7954;51.914;8.420;2023-07-29T06:51:35;99397.66;;;27.89
15709;BMP180;7954;51.914;8.420;2023-07-29T06:54:03;99402.06;;;27.80
15709;BMP180;7954;51.914;8.420;2023-07-29T06:56:31;99419.25;;;27.58
15709;BMP180;7954;51.914;8.420;2023-07-29T06:58:59;99416.50;;;27.46
15709;BMP180;7954;51.914;8.420;2023-07-29T07:01:27;99433.50;;;27.33
15709;BMP180;7954;51.914;8.420;2023-07-29T07:03:57;99430.38;;;27.27
15709;BMP180;7954;51.914;8.420;2023-07-29T07:06:25;99429.59;;;27.48
15709;BMP180;7954;51.914;8.420;2023-07-29T07:08:54;99456.06;;;27.34
15709;BMP180;7954;51.914;8.420;2023-07-29T07:11:22;99454.13;;;27.22
15709;BMP180;7954;51.914;8.420;2023-07-29T07:13:50;99461.59;;;26.99
15709;BMP180;7954;51.914;8.420;2023-07-29T07:16:18;99460.19;;;27.02
15709;BMP180;7954;51.914;8.420;2023-07-29T07:18:48;99453.47;;;27.04
15709;BMP180;7954;51.914;8.420;2023-07-29T07:21:17;99450.72;;;27.13
15709;BMP180;7954;51.914;8.420;2023-07-29T07:23:45;99455.91;;;27.32
15709;BMP180;7954;51.914;8.420;2023-07-29T07:26:13;99456.06;;;27.14
15709;BMP180;7954;51.914;8.420;2023-07-29T07:28:41;99459.44;;;27.33
15709;BMP180;7954;51.914;8.420;2023-07-29T07:31:09;99457.53;;;27.60
15709;BMP180;7954;51.914;8.420;2023-07-29T07:33:38;99456.31;;;27.87
15709;BMP180;7954;51.914;8.420;2023-07-29T07:36:06;99452.16;;;27.89
15709;BMP180;7954;51.914;8.420;2023-07-29T07:38:36;99456.16;;;28.05
15709;BMP180;7954;51.914;8.420;2023-07-29T07:41:04;99452.22;;;28.10
15709;BMP180;7954;51.914;8.420;2023-07-29T07:43:32;99452.22;;;28.30
15709;BMP180;7954;51.914;8.420;2023-07-29T07:46:01;99455.03;;;28.33
15709;BMP180;7954;51.914;8.420;2023-07-29T07:48:29;99452.59;;;28.34
15709;BMP180;7954;51.914;8.420;2023-07-29T07:50:59;99449.06;;;28.34
15709;BMP180;7954;51.914;8.420;2023-07-29T07:53:27;99448.63;;;28.49
15709;BMP180;7954;51.914;8.420;2023-07-29T07:55:57;99445.34;;;28.20
15709;BMP180;7954;51.914;8.420;2023-07-29T07:58:25;99442.75;;;28.10
15709;BMP180;7954;51.914;8.420;2023-07-29T08:01:00;99450.59;;;27.91
15709;BMP180;7954;51.914;8.420;2023-07-29T08:03:28;99441.53;;;27.66
15709;BMP180;7954;51.914;8.420;2023-07-29T08:05:57;99453.06;;;27.49
15709;BMP180;7954;51.914;8.420;2023-07-29T08:08:25;99458.03;;;27.27
15709;BMP180;7954;51.914;8.420;2023-07-29T08:10:54;99463.69;;;27.13
15709;BMP180;7954;51.914;8.420;2023-07-29T08:13:25;99462.28;;;27.46
15709;BMP180;7954;51.914;8.420;2023-07-29T08:15:53;99448.28;;;27.54
15709;BMP180;7954;51.914;8.420;2023-07-29T08:18:21;99451.88;;;27.95
15709;BMP180;7954;51.914;8.420;2023-07-29T08:20:52;99449.75;;;28.11
15709;BMP180;7954;51.914;8.420;2023-07-29T08:23:21;99449.63;;;28.20
15709;BMP180;7954;51.914;8.420;2023-07-29T08:25:52;99464.06;;;27.96
15709;BMP180;7954;51.914;8.420;2023-07-29T08:28:23;99476.16;;;28.06
15709;BMP180;7954;51.914;8.420;2023-07-29T08:30:52;99473.19;;;27.92
15709;BMP180;7954;51.914;8.420;2023-07-29T08:33:20;99458.03;;;27.76
15709;BMP180;7954;51.914;8.420;2023-07-29T08:35:48;99471.38;;;27.81
15709;BMP180;7954;51.914;8.420;2023-07-29T08:38:16;99472.16;;;27.60
15709;BMP180;7954;51.914;8.420;2023-07-29T08:40:46;99449.31;;;27.66
15709;BMP180;7954;51.914;8.420;2023-07-29T08:43:19;99452.34;;;27.60
15709;BMP180;7954;51.914;8.420;2023-07-29T08:45:48;99458.16;;;27.78
15709;BMP180;7954;51.914;8.420;2023-07-29T08:48:22;99448.88;;;28.11
15709;BMP180;7954;51.914;8.420;2023-07-29T08:50:53;99441.56;;;28.58
15709;BMP180;7954;51.914;8.420;2023-07-29T08:53:21;99444.81;;;29.20
15709;BMP180;7954;51.914;8.420;2023-07-29T08:55:50;99441.47;;;29.53
15709;BMP180;7954;51.914;8.420;2023-07-29T08:58:19;99449.50;;;29.24
15709;BMP180;7954;51.914;8.420;2023-07-29T09:00:48;99444.09;;;29.65
15709;BMP180;7954;51.914;8.420;2023-07-29T09:03:19;99438.72;;;29.40
15709;BMP180;7954;51.914;8.420;2023-07-29T09:05:47;99438.13;;;29.12
15709;BMP180;7954;51.914;8.420;2023-07-29T09:08:16;99435.63;;;29.13
15709;BMP180;7954;51.914;8.420;2023-07-29T09:10:44;99431.38;;;28.92
15709;BMP180;7954;51.914;8.420;2023-07-29T09:13:12;99456.13;;;28.56
15709;BMP180;7954;51.914;8.420;2023-07-29T09:15:41;99440.53;;;28.56
15709;BMP180;7954;51.914;8.420;2023-07-29T09:18:10;99447.09;;;28.62
15709;BMP180;7954;51.914;8.420;2023-07-29T09:20:40;99438.50;;;28.42
15709;BMP180;7954;51.914;8.420;2023-07-29T09:23:09;99455.91;;;28.43
15709;BMP180;7954;51.914;8.420;2023-07-29T09:25:38;99451.78;;;28.76
15709;BMP180;7954;51.914;8.420;2023-07-29T09:28:11;99461.00;;;28.94
15709;BMP180;7954;51.914;8.420;2023-07-29T09:30:41;99455.16;;;28.75
15709;BMP180;7954;51.914;8.420;2023-07-29T09:33:09;99453.22;;;28.63
15709;BMP180;7954;51.914;8.420;2023-07-29T09:35:38;99461.38;;;28.67
15709;BMP180;7954;51.914;8.420;2023-07-29T09:38:07;99445.84;;;28.89
15709;BMP180;7954;51.914;8.420;2023-07-29T09:40:35;99446.72;;;29.11
15709;BMP180;7954;51.914;8.420;2023-07-29T09:43:05;99463.59;;;29.16
15709;BMP180;7954;51.914;8.420;2023-07-29T09:45:35;99447.78;;;29.24
15709;BMP180;7954;51.914;8.420;2023-07-29T09:48:05;99464.09;;;29.54
15709;BMP180;7954;51.914;8.420;2023-07-29T09:50:36;99453.94;;;29.57
15709;BMP180;7954;51.914;8.420;2023-07-29T09:53:08;99444.41;;;30.02
15709;BMP180;7954;51.914;8.420;2023-07-29T09:55:36;99435.44;;;30.33
15709;BMP180;7954;51.914;8.420;2023-07-29T09:58:04;99441.09;;;30.16
15709;BMP180;7954;51.914;8.420;2023-07-29T10:00:35;99445.63;;;30.30
15709;BMP180;7954;51.914;8.420;2023-07-29T10:03:05;99444.59;;;30.39
15709;BMP180;7954;51.914;8.420;2023-07-29T10:05:35;99438.41;;;30.49
15709;BMP180;7954;51.914;8.420;2023-07-29T10:08:07;99439.06;;;30.58
15709;BMP180;7954;51.914;8.420;2023-07-29T10:10:35;99436.56;;;30.25
15709;BMP180;7954;51.914;8.420;2023-07-29T10:13:04;99433.50;;;29.96
15709;BMP180;7954;51.914;8.420;2023-07-29T10:15:32;99439.16;;;30.25
15709;BMP180;7954;51.914;8.420;2023-07-29T10:18:01;99435.31;;;30.31
15709;BMP180;7954;51.914;8.420;2023-07-29T10:20:30;99440.31;;;30.28
15709;BMP180;7954;51.914;8.420;2023-07-29T10:22:59;99433.84;;;30.46
15709;BMP180;7954;51.914;8.420;2023-07-29T10:25:37;99440.06;;;30.59
15709;BMP180;7954;51.914;8.420;2023-07-29T10:28:07;99434.22;;;30.86
15709;BMP180;7954;51.914;8.420;2023-07-29T10:30:37;99434.16;;;30.62
15709;BMP180;7954;51.914;8.420;2023-07-29T10:33:06;99433.38;;;30.63
15709;BMP180;7954;51.914;8.420;2023-07-29T10:35:34;99423.59;;;30.72
15709;BMP180;7954;51.914;8.420;2023-07-29T10:38:03;99437.91;;;30.65
15709;BMP180;7954;51.914;8.420;2023-07-29T10:40:45;99430.91;;;30.53
15709;BMP180;7954;51.914;8.420;2023-07-29T10:43:19;99423.97;;;30.65
15709;BMP180;7954;51.914;8.420;2023-07-29T10:45:47;99440.06;;;31.07
15709;BMP180;7954;51.914;8.420;2023-07-29T10:48:40;99440.81;;;31.17
15709;BMP180;7954;51.914;8.420;2023-07-29T10:51:26;99426.75;;;31.15
15709;BMP180;7954;51.914;8.420;2023-07-29T10:53:58;99425.84;;;30.79
15709;BMP180;7954;51.914;8.420;2023-07-29T10:56:30;99430.44;;;30.94
15709;BMP180;7954;51.914;8.420;2023-07-29T10:59:00;99426.44;;;31.11
15709;BMP180;7954;51.914;8.420;2023-07-29T11:01:30;99438.34;;;31.31
15709;BMP180;7954;51.914;8.420;2023-07-29T11:07:19;99414.38;;;31.61
15709;BMP180;7954;51.914;8.420;2023-07-29T11:09:55;99423.66;;;31.69
15709;BMP180;7954;51.914;8.420;2023-07-29T11:12:42;99420.63;;;31.76
15709;BMP180;7954;51.914;8.420;2023-07-29T11:15:14;99418.50;;;31.71
15709;BMP180;7954;51.914;8.420;2023-07-29T11:17:43;99426.03;;;31.66
15709;BMP180;7954;51.914;8.420;2023-07-29T11:20:12;99439.16;;;31.55
15709;BMP180;7954;51.914;8.420;2023-07-29T11:22:41;99429.28;;;31.38
15709;BMP180;7954;51.914;8.420;2023-07-29T11:25:11;99419.78;;;30.91
15709;BMP180;7954;51.914;8.420;2023-07-29T11:27:40;99423.56;;;30.83
15709;BMP180;7954;51.914;8.420;2023-07-29T11:30:10;99417.09;;;30.90
15709;BMP180;7954;51.914;8.420;2023-07-29T11:32:40;99403.91;;;31.00
15709;BMP180;7954;51.914;8.420;2023-07-29T11:35:10;99400.41;;;31.36
15709;BMP180;7954;51.914;8.420;2023-07-29T11:37:39;99401.28;;;31.24
15709;BMP180;7954;51.914;8.420;2023-07-29T11:40:08;99405.19;;;31.18
15709;BMP180;7954;51.914;8.420;2023-07-29T11:42:37;99412.91;;;31.40
15709;BMP180;7954;51.914;8.420;2023-07-29T11:45:11;99408.44;;;31.64
15709;BMP180;7954;51.914;8.420;2023-07-29T11:47:43;99415.81;;;31.69
15709;BMP180;7954;51.914;8.420;2023-07-29T11:50:12;99408.91;;;31.83
15709;BMP180;7954;51.914;8.420;2023-07-29T11:52:42;99401.66;;;31.92
15709;BMP180;7954;51.914;8.420;2023-07-29T11:55:12;99396.56;;;32.06
15709;BMP180;7954;51.914;8.420;2023-07-29T11:57:42;99399.66;;;32.13
15709;BMP180;7954;51.914;8.420;2023-07-29T12:00:13;99404.00;;;32.39
15709;BMP180;7954;51.914;8.420;2023-07-29T12:02:42;99400.66;;;32.28
15709;BMP180;7954;51.914;8.420;2023-07-29T12:05:13;99415.22;;;32.51
15709;BMP180;7954;51.914;8.420;2023-07-29T12:07:42;99400.41;;;32.77
15709;BMP180;7954;51.914;8.420;2023-07-29T12:10:11;99409.78;;;33.01
15709;BMP180;7954;51.914;8.420;2023-07-29T12:12:44;99387.59;;;33.36
15709;BMP180;7954;51.914;8.420;2023-07-29T12:15:22;99390.47;;;33.26
15709;BMP180;7954;51.914;8.420;2023-07-29T12:17:53;99399.34;;;32.88
15709;BMP180;7954;51.914;8.420;2023-07-29T12:20:22;99415.44;;;32.66
15709;BMP180;7954;51.914;8.420;2023-07-29T12:22:54;99410.31;;;33.08
15709;BMP180;7954;51.914;8.420;2023-07-29T12:25:22;99404.16;;;33.35
15709;BMP180;7954;51.914;8.420;2023-07-29T12:27:50;99406.19;;;33.26
15709;BMP180;7954;51.914;8.420;2023-07-29T12:30:22;99411.03;;;33.06
15709;BMP180;7954;51.914;8.420;2023-07-29T12:32:51;99401.41;;;33.33
15709;BMP180;7954;51.914;8.420;2023-07-29T12:35:19;99402.78;;;33.41
15709;BMP180;7954;51.914;8.420;2023-07-29T12:37:58;99414.34;;;33.03
15709;BMP180;7954;51.914;8.420;2023-07-29T12:40:26;99411.22;;;32.96
15709;BMP180;7954;51.914;8.420;2023-07-29T12:42:55;99401.88;;;32.46
15709;BMP180;7954;51.914;8.420;2023-07-29T12:45:25;99409.47;;;31.79
15709;BMP180;7954;51.914;8.420;2023-07-29T12:47:56;99402.84;;;31.46
15709;BMP180;7954;51.914;8.420;2023-07-29T12:50:24;99398.78;;;31.50
15709;BMP180;7954;51.914;8.420;2023-07-29T12:52:52;99412.66;;;31.25
15709;BMP180;7954;51.914;8.420;2023-07-29T12:55:20;99465.94;;;32.14
15709;BMP180;7954;51.914;8.420;2023-07-29T12:57:49;99403.50;;;32.31
15709;BMP180;7954;51.914;8.420;2023-07-29T13:00:18;99386.97;;;31.81
15709;BMP180;7954;51.914;8.420;2023-07-29T13:02:47;99454.38;;;33.42
15709;BMP180;7954;51.914;8.420;2023-07-29T13:05:16;99429.84;;;35.98
15709;BMP180;7954;51.914;8.420;2023-07-29T13:07:45;99426.78;;;38.08
15709;BMP180;7954;51.914;8.420;2023-07-29T13:10:14;99407.16;;;39.78
15709;BMP180;7954;51.914;8.420;2023-07-29T13:12:42;99406.88;;;40.99
15709;BMP180;7954;51.914;8.420;2023-07-29T13:15:10;99425.53;;;41.59
15709;BMP180;7954;51.914;8.420;2023-07-29T13:17:38;99394.72;;;41.64
15709;BMP180;7954;51.914;8.420;2023-07-29T13:20:09;99431.69;;;42.55
15709;BMP180;7954;51.914;8.420;2023-07-29T13:22:37;99440.91;;;42.34
15709;BMP180;7954;51.914;8.420;2023-07-29T13:25:05;99347.72;;;42.26
15709;BMP180;7954;51.914;8.420;2023-07-29T13:27:33;99425.69;;;41.35
15709;BMP180;7954;51.914;8.420;2023-07-29T13:30:01;99353.50;;;41.78
15709;BMP180;7954;51.914;8.420;2023-07-29T13:32:31;99385.63;;;40.17
15709;BMP180;7954;51.914;8.420;2023-07-29T13:34:59;99355.78;;;39.24
15709;BMP180;7954;51.914;8.420;2023-07-29T13:37:29;99373.00;;;37.66
15709;BMP180;7954;51.914;8.420;2023-07-29T13:39:57;99391.78;;;36.08
15709;BMP180;7954;51.914;8.420;2023-07-29T13:42:25;99440.03;;;36.61
15709;BMP180;7954;51.914;8.420;2023-07-29T13:44:53;99455.78;;;39.12
15709;BMP180;7954;51.914;8.420;2023-07-29T13:47:21;99441.66;;;40.80
15709;BMP180;7954;51.914;8.420;2023-07-29T13:49:48;99361.53;;;41.81
15709;BMP180;7954;51.914;8.420;2023-07-29T13:52:16;99384.38;;;39.57
15709;BMP180;7954;51.914;8.420;2023-07-29T13:54:45;99448.59;;;39.53
15709;BMP180;7954;51.914;8.420;2023-07-29T13:57:13;99453.47;;;42.08
15709;BMP180;7954;51.914;8.420;2023-07-29T13:59:41;99348.81;;;41.68
15709;BMP180;7954;51.914;8.420;2023-07-29T14:02:09;99349.06;;;41.79
15709;BMP180;7954;51.914;8.420;2023-07-29T14:04:37;99376.09;;;38.58
15709;BMP180;7954;51.914;8.420;2023-07-29T14:07:06;99391.66;;;37.31
15709;BMP180;7954;51.914;8.420;2023-07-29T14:09:35;99399.97;;;37.02
15709;BMP180;7954;51.914;8.420;2023-07-29T14:12:07;99380.78;;;38.65
15709;BMP180;7954;51.914;8.420;2023-07-29T14:14:38;99443.94;;;38.18
15709;BMP180;7954;51.914;8.420;2023-07-29T14:17:06;99380.09;;;38.48
15709;BMP180;7954;51.914;8.420;2023-07-29T14:19:35;99410.69;;;37.82
15709;BMP180;7954;51.914;8.420;2023-07-29T14:22:03;99421.72;;;39.19
15709;BMP180;7954;51.914;8.420;2023-07-29T14:24:31;99420.13;;;39.01
15709;BMP180;7954;51.914;8.420;2023-07-29T14:27:06;99386.63;;;37.95
15709;BMP180;7954;51.914;8.420;2023-07-29T14:29:34;99403.53;;;36.68
15709;BMP180;7954;51.914;8.420;2023-07-29T14:32:02;99408.00;;;35.84
15709;BMP180;7954;51.914;8.420;2023-07-29T14:34:30;99416.47;;;34.67
15709;BMP180;7954;51.914;8.420;2023-07-29T14:36:58;99427.59;;;34.18
15709;BMP180;7954;51.914;8.420;2023-07-29T14:39:26;99422.81;;;33.54